Aleksandr Zhitnik — EMBN — position and weather

sailwx.info

Track history (hours):
 
Tides and Currents Weather Stations Pressure Air Temp Water Temp Dewpoint Dewpoint Depression Visibility Wind Speed Wind Dir Waves Ship Positions

Aleksandr Zhitnik

Last reported at 2014-Oct-16 04:16 UTC. Time now 2014-Oct-26 07:47 UTC.
Position N 46°32' E 032°06'.
Warning: this ship's position is 10 days out of date.

Length 85 m; draft 1.8 m.

Type: Cargo ship. MMSI: 272089600.

Date/timePositionNaut miles runAvg speedWind from/ knotsBaromVisibWave heightAir tempDewpointWater temp
2014-Oct-16 04:16N 46°32' E 032°06'2 0.6
2014-Oct-16 00:32N 46°30' E 032°04'0 0.0
2014-Oct-15 23:26N 46°30' E 032°04'0 0.0
2014-Oct-15 22:33N 46°30' E 032°04'0 0.0
2014-Oct-15 21:28N 46°30' E 032°04'0 0.0
2014-Oct-15 20:33N 46°30' E 032°04'0 0.0
2014-Oct-15 19:33N 46°30' E 032°04'0 0.0
2014-Oct-15 18:32N 46°30' E 032°04'0 0.0
2014-Oct-15 17:32N 46°30' E 032°04'0 0.0
2014-Oct-15 16:33N 46°30' E 032°04'0 0.0
2014-Oct-15 15:33N 46°30' E 032°04'0 0.0
2014-Oct-15 14:32N 46°30' E 032°04'2 0.6
2014-Oct-15 11:33N 46°31' E 032°05'  
2014-Oct-09 04:33N 46°32' E 032°05'2 1.9
2014-Oct-09 03:33N 46°30' E 032°05'0 0.0
2014-Oct-09 02:33N 46°30' E 032°05'0 0.0
2014-Oct-09 01:10N 46°30' E 032°05'0 0.0
2014-Oct-09 00:26N 46°30' E 032°05'0 0.3
2014-Oct-08 23:32N 46°30' E 032°04'0 0.0
2014-Oct-08 22:25N 46°30' E 032°04'0 0.0
2014-Oct-08 21:12N 46°30' E 032°04'0 0.0
2014-Oct-08 20:30N 46°30' E 032°04'0 0.1
2014-Oct-08 15:20N 46°30' E 032°05'3 2.4
2014-Oct-08 14:17N 46°32' E 032°03'5 6.4
2014-Oct-08 13:33N 46°33' E 031°57'8 6.3
2014-Oct-08 12:15N 46°36' E 031°45'  
Track history (hours):
 
Tides and Currents Weather Stations Pressure Air Temp Water Temp Dewpoint Dewpoint Depression Visibility Wind Speed Wind Dir Waves Ship Positions

Aleksandr Zhitnik

Last reported at 2014-Oct-16 04:16 UTC. Time now 2014-Oct-26 07:47 UTC.
Position N 46°32' E 032°06'.
Warning: this ship's position is 10 days out of date.

Length 85 m; draft 1.8 m.

Type: Cargo ship. MMSI: 272089600.

Date/timePositionNaut miles runAvg speedWind from/ knotsBaromVisibWave heightAir tempDewpointWater temp
2014-Oct-16 04:16N 46°32' E 032°06'2 0.6
2014-Oct-16 00:32N 46°30' E 032°04'0 0.0
2014-Oct-15 23:26N 46°30' E 032°04'0 0.0
2014-Oct-15 22:33N 46°30' E 032°04'0 0.0
2014-Oct-15 21:28N 46°30' E 032°04'0 0.0
2014-Oct-15 20:33N 46°30' E 032°04'0 0.0
2014-Oct-15 19:33N 46°30' E 032°04'0 0.0
2014-Oct-15 18:32N 46°30' E 032°04'0 0.0
2014-Oct-15 17:32N 46°30' E 032°04'0 0.0
2014-Oct-15 16:33N 46°30' E 032°04'0 0.0
2014-Oct-15 15:33N 46°30' E 032°04'0 0.0
2014-Oct-15 14:32N 46°30' E 032°04'2 0.6
2014-Oct-15 11:33N 46°31' E 032°05'  
2014-Oct-09 04:33N 46°32' E 032°05'2 1.9
2014-Oct-09 03:33N 46°30' E 032°05'0 0.0
2014-Oct-09 02:33N 46°30' E 032°05'0 0.0
2014-Oct-09 01:10N 46°30' E 032°05'0 0.0
2014-Oct-09 00:26N 46°30' E 032°05'0 0.3
2014-Oct-08 23:32N 46°30' E 032°04'0 0.0
2014-Oct-08 22:25N 46°30' E 032°04'0 0.0
2014-Oct-08 21:12N 46°30' E 032°04'0 0.0
2014-Oct-08 20:30N 46°30' E 032°04'0 0.1
2014-Oct-08 15:20N 46°30' E 032°05'3 2.4
2014-Oct-08 14:17N 46°32' E 032°03'5 6.4
2014-Oct-08 13:33N 46°33' E 031°57'8 6.3
2014-Oct-08 12:15N 46°36' E 031°45'  

Dump ship's entire track history